sensor_id;sensor_type;location;lat;lon;timestamp;P1;durP1;ratioP1;P2;durP2;ratioP2
61336;SDS011;47212;41.326;2.104;2023-08-06T00:03:41;3.38;;;2.20;;
61336;SDS011;47212;41.326;2.104;2023-08-06T00:08:45;3.45;;;1.75;;
61336;SDS011;47212;41.326;2.104;2023-08-06T00:13:58;5.03;;;2.20;;
61336;SDS011;47212;41.326;2.104;2023-08-06T00:19:08;4.82;;;2.15;;
61336;SDS011;47212;41.326;2.104;2023-08-06T00:24:16;5.72;;;2.58;;
61336;SDS011;47212;41.326;2.104;2023-08-06T00:29:20;4.28;;;2.33;;
61336;SDS011;47212;41.326;2.104;2023-08-06T00:34:27;8.23;;;2.70;;
61336;SDS011;47212;41.326;2.104;2023-08-06T00:39:30;7.90;;;4.15;;
61336;SDS011;47212;41.326;2.104;2023-08-06T00:44:33;4.13;;;2.30;;
61336;SDS011;47212;41.326;2.104;2023-08-06T00:49:47;3.78;;;2.03;;
61336;SDS011;47212;41.326;2.104;2023-08-06T00:54:52;6.90;;;2.50;;
61336;SDS011;47212;41.326;2.104;2023-08-06T00:59:58;4.10;;;2.08;;
61336;SDS011;47212;41.326;2.104;2023-08-06T01:15:42;8.73;;;2.90;;
61336;SDS011;47212;41.326;2.104;2023-08-06T01:20:51;6.10;;;3.00;;
61336;SDS011;47212;41.326;2.104;2023-08-06T01:30:59;4.70;;;2.45;;
61336;SDS011;47212;41.326;2.104;2023-08-06T01:36:04;4.53;;;2.15;;
61336;SDS011;47212;41.326;2.104;2023-08-06T01:41:08;4.60;;;2.10;;
61336;SDS011;47212;41.326;2.104;2023-08-06T01:46:11;4.03;;;2.47;;
61336;SDS011;47212;41.326;2.104;2023-08-06T01:51:13;5.07;;;2.60;;
61336;SDS011;47212;41.326;2.104;2023-08-06T01:56:15;6.78;;;2.60;;
61336;SDS011;47212;41.326;2.104;2023-08-06T02:01:18;5.63;;;2.60;;
61336;SDS011;47212;41.326;2.104;2023-08-06T02:06:22;4.30;;;2.30;;
61336;SDS011;47212;41.326;2.104;2023-08-06T02:11:24;5.55;;;2.70;;
61336;SDS011;47212;41.326;2.104;2023-08-06T02:16:27;6.80;;;2.47;;
61336;SDS011;47212;41.326;2.104;2023-08-06T02:21:30;3.00;;;2.00;;
61336;SDS011;47212;41.326;2.104;2023-08-06T02:26:32;4.68;;;2.10;;
61336;SDS011;47212;41.326;2.104;2023-08-06T02:31:34;6.70;;;2.47;;
61336;SDS011;47212;41.326;2.104;2023-08-06T02:36:36;4.63;;;2.15;;
61336;SDS011;47212;41.326;2.104;2023-08-06T02:41:38;4.55;;;2.50;;
61336;SDS011;47212;41.326;2.104;2023-08-06T02:46:41;4.55;;;2.33;;
61336;SDS011;47212;41.326;2.104;2023-08-06T02:51:44;3.83;;;2.05;;
61336;SDS011;47212;41.326;2.104;2023-08-06T02:56:47;5.32;;;2.17;;
61336;SDS011;47212;41.326;2.104;2023-08-06T03:01:56;3.70;;;2.00;;
61336;SDS011;47212;41.326;2.104;2023-08-06T03:07:07;6.32;;;2.40;;
61336;SDS011;47212;41.326;2.104;2023-08-06T03:12:20;6.20;;;2.30;;
61336;SDS011;47212;41.326;2.104;2023-08-06T03:17:23;5.03;;;1.92;;
61336;SDS011;47212;41.326;2.104;2023-08-06T03:22:25;4.90;;;2.20;;
61336;SDS011;47212;41.326;2.104;2023-08-06T03:27:29;2.92;;;1.75;;
61336;SDS011;47212;41.326;2.104;2023-08-06T03:32:31;5.15;;;2.13;;
61336;SDS011;47212;41.326;2.104;2023-08-06T03:37:33;7.28;;;2.42;;
61336;SDS011;47212;41.326;2.104;2023-08-06T03:42:35;5.43;;;1.98;;
61336;SDS011;47212;41.326;2.104;2023-08-06T03:47:38;2.85;;;1.80;;
61336;SDS011;47212;41.326;2.104;2023-08-06T03:52:41;3.45;;;2.05;;
61336;SDS011;47212;41.326;2.104;2023-08-06T03:57:45;4.30;;;2.13;;
61336;SDS011;47212;41.326;2.104;2023-08-06T04:09:01;4.93;;;2.00;;
61336;SDS011;47212;41.326;2.104;2023-08-06T04:14:05;4.55;;;2.13;;
61336;SDS011;47212;41.326;2.104;2023-08-06T04:19:06;4.30;;;2.25;;
61336;SDS011;47212;41.326;2.104;2023-08-06T04:26:03;4.45;;;2.30;;
61336;SDS011;47212;41.326;2.104;2023-08-06T04:33:01;4.35;;;2.15;;
61336;SDS011;47212;41.326;2.104;2023-08-06T04:38:32;3.35;;;2.08;;
61336;SDS011;47212;41.326;2.104;2023-08-06T04:43:35;5.93;;;2.40;;
61336;SDS011;47212;41.326;2.104;2023-08-06T04:48:46;5.88;;;2.13;;
61336;SDS011;47212;41.326;2.104;2023-08-06T04:53:53;6.63;;;2.50;;
61336;SDS011;47212;41.326;2.104;2023-08-06T04:59:02;5.13;;;2.53;;
61336;SDS011;47212;41.326;2.104;2023-08-06T05:04:07;6.05;;;2.13;;
61336;SDS011;47212;41.326;2.104;2023-08-06T05:09:10;3.97;;;1.95;;
61336;SDS011;47212;41.326;2.104;2023-08-06T05:14:12;5.60;;;2.22;;
61336;SDS011;47212;41.326;2.104;2023-08-06T05:19:16;4.15;;;2.08;;
61336;SDS011;47212;41.326;2.104;2023-08-06T05:24:21;7.50;;;2.63;;
61336;SDS011;47212;41.326;2.104;2023-08-06T05:29:35;4.30;;;2.30;;
61336;SDS011;47212;41.326;2.104;2023-08-06T05:34:44;5.50;;;2.08;;
61336;SDS011;47212;41.326;2.104;2023-08-06T05:39:51;3.80;;;1.90;;
61336;SDS011;47212;41.326;2.104;2023-08-06T05:44:53;4.45;;;2.00;;
61336;SDS011;47212;41.326;2.104;2023-08-06T05:49:55;7.07;;;2.22;;
61336;SDS011;47212;41.326;2.104;2023-08-06T05:54:57;3.15;;;1.80;;
61336;SDS011;47212;41.326;2.104;2023-08-06T06:00:00;2.08;;;1.58;;
61336;SDS011;47212;41.326;2.104;2023-08-06T06:05:16;3.78;;;1.60;;
61336;SDS011;47212;41.326;2.104;2023-08-06T06:10:18;8.52;;;4.40;;
61336;SDS011;47212;41.326;2.104;2023-08-06T06:15:24;4.32;;;3.33;;
61336;SDS011;47212;41.326;2.104;2023-08-06T06:20:26;4.55;;;2.20;;
61336;SDS011;47212;41.326;2.104;2023-08-06T06:25:32;3.22;;;2.00;;
61336;SDS011;47212;41.326;2.104;2023-08-06T06:30:34;5.90;;;4.30;;
61336;SDS011;47212;41.326;2.104;2023-08-06T06:35:54;5.03;;;3.22;;
61336;SDS011;47212;41.326;2.104;2023-08-06T06:41:00;5.00;;;3.97;;
61336;SDS011;47212;41.326;2.104;2023-08-06T06:46:05;6.22;;;4.15;;
61336;SDS011;47212;41.326;2.104;2023-08-06T06:51:08;6.90;;;3.90;;
61336;SDS011;47212;41.326;2.104;2023-08-06T06:56:12;4.10;;;2.20;;
61336;SDS011;47212;41.326;2.104;2023-08-06T07:01:19;3.35;;;2.28;;
61336;SDS011;47212;41.326;2.104;2023-08-06T07:06:27;4.07;;;2.10;;
61336;SDS011;47212;41.326;2.104;2023-08-06T07:11:37;1.98;;;1.58;;
61336;SDS011;47212;41.326;2.104;2023-08-06T07:16:50;4.03;;;1.85;;
61336;SDS011;47212;41.326;2.104;2023-08-06T07:21:53;2.95;;;1.70;;
61336;SDS011;47212;41.326;2.104;2023-08-06T07:26:57;3.70;;;1.80;;
61336;SDS011;47212;41.326;2.104;2023-08-06T07:32:02;2.70;;;1.58;;
61336;SDS011;47212;41.326;2.104;2023-08-06T07:37:04;3.55;;;1.60;;
61336;SDS011;47212;41.326;2.104;2023-08-06T07:42:07;2.97;;;1.85;;
61336;SDS011;47212;41.326;2.104;2023-08-06T07:47:14;1.63;;;1.33;;
61336;SDS011;47212;41.326;2.104;2023-08-06T07:52:16;3.65;;;1.50;;
61336;SDS011;47212;41.326;2.104;2023-08-06T07:57:18;3.05;;;1.70;;
61336;SDS011;47212;41.326;2.104;2023-08-06T08:02:21;3.75;;;1.50;;
61336;SDS011;47212;41.326;2.104;2023-08-06T08:07:25;7.32;;;1.88;;
61336;SDS011;47212;41.326;2.104;2023-08-06T08:12:39;6.20;;;1.98;;
61336;SDS011;47212;41.326;2.104;2023-08-06T08:17:42;2.20;;;1.40;;
61336;SDS011;47212;41.326;2.104;2023-08-06T08:22:49;5.15;;;1.38;;
61336;SDS011;47212;41.326;2.104;2023-08-06T08:27:55;3.33;;;1.52;;
61336;SDS011;47212;41.326;2.104;2023-08-06T08:38:07;2.30;;;1.40;;
61336;SDS011;47212;41.326;2.104;2023-08-06T08:43:09;5.25;;;1.92;;
61336;SDS011;47212;41.326;2.104;2023-08-06T08:48:12;3.97;;;1.60;;
61336;SDS011;47212;41.326;2.104;2023-08-06T08:53:16;3.83;;;1.50;;
61336;SDS011;47212;41.326;2.104;2023-08-06T08:58:20;3.00;;;1.67;;
61336;SDS011;47212;41.326;2.104;2023-08-06T09:03:23;3.67;;;1.60;;
61336;SDS011;47212;41.326;2.104;2023-08-06T09:08:27;5.53;;;1.92;;
61336;SDS011;47212;41.326;2.104;2023-08-06T09:13:33;4.60;;;2.42;;
61336;SDS011;47212;41.326;2.104;2023-08-06T09:18:41;9.13;;;2.30;;
61336;SDS011;47212;41.326;2.104;2023-08-06T09:23:47;3.60;;;1.90;;
61336;SDS011;47212;41.326;2.104;2023-08-06T09:28:58;4.65;;;1.80;;
61336;SDS011;47212;41.326;2.104;2023-08-06T09:34:06;3.72;;;1.90;;
61336;SDS011;47212;41.326;2.104;2023-08-06T09:39:27;5.78;;;1.70;;
61336;SDS011;47212;41.326;2.104;2023-08-06T09:44:31;3.28;;;1.60;;
61336;SDS011;47212;41.326;2.104;2023-08-06T09:54:37;4.70;;;1.73;;
61336;SDS011;47212;41.326;2.104;2023-08-06T09:59:40;3.63;;;1.88;;
61336;SDS011;47212;41.326;2.104;2023-08-06T10:04:53;3.85;;;1.80;;
61336;SDS011;47212;41.326;2.104;2023-08-06T10:10:02;6.70;;;1.65;;
61336;SDS011;47212;41.326;2.104;2023-08-06T10:15:06;6.30;;;1.95;;
61336;SDS011;47212;41.326;2.104;2023-08-06T10:20:12;6.18;;;2.42;;
61336;SDS011;47212;41.326;2.104;2023-08-06T10:25:18;7.35;;;2.20;;
61336;SDS011;47212;41.326;2.104;2023-08-06T10:46:02;6.03;;;2.35;;
61336;SDS011;47212;41.326;2.104;2023-08-06T10:51:13;13.20;;;4.18;;
61336;SDS011;47212;41.326;2.104;2023-08-06T10:56:20;6.57;;;2.33;;
61336;SDS011;47212;41.326;2.104;2023-08-06T11:01:28;4.43;;;2.25;;
61336;SDS011;47212;41.326;2.104;2023-08-06T11:06:42;7.40;;;2.20;;
61336;SDS011;47212;41.326;2.104;2023-08-06T11:11:45;6.13;;;2.63;;
61336;SDS011;47212;41.326;2.104;2023-08-06T11:16:48;9.98;;;3.05;;
61336;SDS011;47212;41.326;2.104;2023-08-06T11:21:51;7.90;;;2.72;;
61336;SDS011;47212;41.326;2.104;2023-08-06T11:26:55;7.22;;;2.55;;
61336;SDS011;47212;41.326;2.104;2023-08-06T11:32:05;7.82;;;2.50;;
61336;SDS011;47212;41.326;2.104;2023-08-06T11:37:07;6.50;;;2.63;;
61336;SDS011;47212;41.326;2.104;2023-08-06T11:42:10;7.55;;;2.30;;
61336;SDS011;47212;41.326;2.104;2023-08-06T11:47:15;5.32;;;2.38;;
61336;SDS011;47212;41.326;2.104;2023-08-06T11:52:19;8.00;;;2.42;;
61336;SDS011;47212;41.326;2.104;2023-08-06T11:57:22;4.78;;;2.10;;
61336;SDS011;47212;41.326;2.104;2023-08-06T12:02:25;8.00;;;2.53;;
61336;SDS011;47212;41.326;2.104;2023-08-06T12:07:31;8.27;;;2.78;;
61336;SDS011;47212;41.326;2.104;2023-08-06T12:12:35;6.97;;;2.60;;
61336;SDS011;47212;41.326;2.104;2023-08-06T12:17:39;10.10;;;3.22;;
61336;SDS011;47212;41.326;2.104;2023-08-06T12:22:41;10.10;;;4.25;;
61336;SDS011;47212;41.326;2.104;2023-08-06T12:27:46;14.25;;;4.00;;
61336;SDS011;47212;41.326;2.104;2023-08-06T12:32:50;11.43;;;3.40;;
61336;SDS011;47212;41.326;2.104;2023-08-06T12:37:55;10.15;;;3.67;;
61336;SDS011;47212;41.326;2.104;2023-08-06T12:43:03;14.23;;;3.30;;
61336;SDS011;47212;41.326;2.104;2023-08-06T12:48:05;11.50;;;4.15;;
61336;SDS011;47212;41.326;2.104;2023-08-06T12:53:08;8.73;;;2.75;;
61336;SDS011;47212;41.326;2.104;2023-08-06T12:58:16;11.23;;;3.25;;
61336;SDS011;47212;41.326;2.104;2023-08-06T13:03:22;16.08;;;4.03;;
61336;SDS011;47212;41.326;2.104;2023-08-06T13:08:24;7.63;;;2.60;;
61336;SDS011;47212;41.326;2.104;2023-08-06T13:13:26;9.50;;;2.92;;
61336;SDS011;47212;41.326;2.104;2023-08-06T13:18:28;8.45;;;3.00;;
61336;SDS011;47212;41.326;2.104;2023-08-06T13:23:31;10.13;;;4.13;;
61336;SDS011;47212;41.326;2.104;2023-08-06T13:28:33;8.80;;;3.33;;
61336;SDS011;47212;41.326;2.104;2023-08-06T13:33:35;11.57;;;4.35;;
61336;SDS011;47212;41.326;2.104;2023-08-06T13:38:37;9.85;;;3.50;;
61336;SDS011;47212;41.326;2.104;2023-08-06T13:43:46;9.88;;;3.42;;
61336;SDS011;47212;41.326;2.104;2023-08-06T13:48:54;15.05;;;5.63;;
61336;SDS011;47212;41.326;2.104;2023-08-06T13:54:21;18.90;;;3.85;;
61336;SDS011;47212;41.326;2.104;2023-08-06T13:59:23;10.82;;;3.38;;
61336;SDS011;47212;41.326;2.104;2023-08-06T14:04:26;11.82;;;3.28;;
61336;SDS011;47212;41.326;2.104;2023-08-06T14:09:28;12.60;;;3.35;;
61336;SDS011;47212;41.326;2.104;2023-08-06T14:14:31;10.55;;;3.20;;
61336;SDS011;47212;41.326;2.104;2023-08-06T14:19:38;10.80;;;3.28;;
61336;SDS011;47212;41.326;2.104;2023-08-06T14:24:46;11.00;;;3.33;;
61336;SDS011;47212;41.326;2.104;2023-08-06T14:29:54;13.02;;;3.55;;
61336;SDS011;47212;41.326;2.104;2023-08-06T14:35:04;11.57;;;3.43;;
61336;SDS011;47212;41.326;2.104;2023-08-06T14:40:06;12.52;;;3.75;;
61336;SDS011;47212;41.326;2.104;2023-08-06T14:45:09;13.63;;;3.53;;
61336;SDS011;47212;41.326;2.104;2023-08-06T14:50:12;11.63;;;3.67;;
61336;SDS011;47212;41.326;2.104;2023-08-06T14:55:17;9.10;;;3.33;;
61336;SDS011;47212;41.326;2.104;2023-08-06T15:00:25;7.90;;;2.90;;
61336;SDS011;47212;41.326;2.104;2023-08-06T15:05:27;11.57;;;3.38;;
61336;SDS011;47212;41.326;2.104;2023-08-06T15:10:30;14.68;;;4.13;;
61336;SDS011;47212;41.326;2.104;2023-08-06T15:15:32;13.20;;;3.75;;
61336;SDS011;47212;41.326;2.104;2023-08-06T15:20:34;20.30;;;4.28;;
61336;SDS011;47212;41.326;2.104;2023-08-06T15:25:38;13.23;;;3.72;;
61336;SDS011;47212;41.326;2.104;2023-08-06T15:30:40;9.48;;;3.28;;
61336;SDS011;47212;41.326;2.104;2023-08-06T15:35:51;11.50;;;3.63;;
61336;SDS011;47212;41.326;2.104;2023-08-06T15:40:55;12.82;;;3.95;;
61336;SDS011;47212;41.326;2.104;2023-08-06T15:45:58;15.20;;;3.72;;
61336;SDS011;47212;41.326;2.104;2023-08-06T15:51:06;12.43;;;3.40;;
61336;SDS011;47212;41.326;2.104;2023-08-06T15:56:09;9.10;;;3.03;;
61336;SDS011;47212;41.326;2.104;2023-08-06T16:01:11;9.82;;;3.33;;
61336;SDS011;47212;41.326;2.104;2023-08-06T16:06:24;16.40;;;4.68;;
61336;SDS011;47212;41.326;2.104;2023-08-06T16:11:31;16.90;;;4.40;;
61336;SDS011;47212;41.326;2.104;2023-08-06T16:16:44;12.02;;;3.60;;
61336;SDS011;47212;41.326;2.104;2023-08-06T16:21:47;15.10;;;4.13;;
61336;SDS011;47212;41.326;2.104;2023-08-06T16:26:54;11.00;;;3.08;;
61336;SDS011;47212;41.326;2.104;2023-08-06T16:31:59;15.80;;;4.00;;
61336;SDS011;47212;41.326;2.104;2023-08-06T16:37:06;10.50;;;3.55;;
61336;SDS011;47212;41.326;2.104;2023-08-06T16:42:13;12.48;;;4.18;;
61336;SDS011;47212;41.326;2.104;2023-08-06T16:47:18;13.00;;;4.30;;
61336;SDS011;47212;41.326;2.104;2023-08-06T16:52:23;14.98;;;4.38;;
61336;SDS011;47212;41.326;2.104;2023-08-06T16:57:31;11.13;;;3.53;;
61336;SDS011;47212;41.326;2.104;2023-08-06T17:02:41;10.55;;;3.03;;
61336;SDS011;47212;41.326;2.104;2023-08-06T17:07:53;13.63;;;3.85;;
61336;SDS011;47212;41.326;2.104;2023-08-06T17:12:57;11.73;;;3.80;;
61336;SDS011;47212;41.326;2.104;2023-08-06T17:18:15;20.52;;;4.35;;
61336;SDS011;47212;41.326;2.104;2023-08-06T17:23:22;4.78;;;2.53;;
61336;SDS011;47212;41.326;2.104;2023-08-06T17:28:24;13.20;;;3.55;;
61336;SDS011;47212;41.326;2.104;2023-08-06T17:33:26;12.55;;;3.25;;
61336;SDS011;47212;41.326;2.104;2023-08-06T17:38:28;15.75;;;4.15;;
61336;SDS011;47212;41.326;2.104;2023-08-06T17:43:30;11.98;;;4.15;;
61336;SDS011;47212;41.326;2.104;2023-08-06T17:48:33;11.40;;;3.20;;
61336;SDS011;47212;41.326;2.104;2023-08-06T17:53:36;9.30;;;2.80;;
61336;SDS011;47212;41.326;2.104;2023-08-06T17:58:38;9.88;;;3.25;;
61336;SDS011;47212;41.326;2.104;2023-08-06T18:03:41;12.40;;;3.70;;
61336;SDS011;47212;41.326;2.104;2023-08-06T18:08:45;14.82;;;3.97;;
61336;SDS011;47212;41.326;2.104;2023-08-06T18:13:47;4.50;;;2.30;;
61336;SDS011;47212;41.326;2.104;2023-08-06T18:18:49;9.05;;;2.97;;
61336;SDS011;47212;41.326;2.104;2023-08-06T18:24:00;9.80;;;2.83;;
61336;SDS011;47212;41.326;2.104;2023-08-06T18:29:02;6.90;;;2.25;;
61336;SDS011;47212;41.326;2.104;2023-08-06T18:34:04;10.85;;;3.50;;
61336;SDS011;47212;41.326;2.104;2023-08-06T18:39:10;8.38;;;3.00;;
61336;SDS011;47212;41.326;2.104;2023-08-06T18:44:21;10.55;;;3.03;;
61336;SDS011;47212;41.326;2.104;2023-08-06T18:49:23;9.00;;;2.92;;
61336;SDS011;47212;41.326;2.104;2023-08-06T18:54:26;13.27;;;3.47;;
61336;SDS011;47212;41.326;2.104;2023-08-06T18:59:28;10.25;;;3.22;;
61336;SDS011;47212;41.326;2.104;2023-08-06T19:04:35;10.88;;;3.42;;
61336;SDS011;47212;41.326;2.104;2023-08-06T19:09:39;13.07;;;3.50;;
61336;SDS011;47212;41.326;2.104;2023-08-06T19:14:47;7.95;;;2.78;;
61336;SDS011;47212;41.326;2.104;2023-08-06T19:19:52;6.85;;;2.65;;
61336;SDS011;47212;41.326;2.104;2023-08-06T19:25:03;14.32;;;3.30;;
61336;SDS011;47212;41.326;2.104;2023-08-06T19:30:09;7.32;;;2.92;;
61336;SDS011;47212;41.326;2.104;2023-08-06T19:35:18;9.05;;;2.75;;
61336;SDS011;47212;41.326;2.104;2023-08-06T19:40:23;10.43;;;2.95;;
61336;SDS011;47212;41.326;2.104;2023-08-06T19:45:40;10.48;;;2.85;;
61336;SDS011;47212;41.326;2.104;2023-08-06T19:50:54;10.30;;;2.95;;
61336;SDS011;47212;41.326;2.104;2023-08-06T19:56:09;12.20;;;3.90;;
61336;SDS011;47212;41.326;2.104;2023-08-06T20:01:11;13.50;;;3.55;;
61336;SDS011;47212;41.326;2.104;2023-08-06T20:06:15;9.73;;;3.00;;
61336;SDS011;47212;41.326;2.104;2023-08-06T20:11:20;9.93;;;2.65;;
61336;SDS011;47212;41.326;2.104;2023-08-06T20:16:22;12.02;;;3.17;;
61336;SDS011;47212;41.326;2.104;2023-08-06T20:21:24;6.93;;;2.75;;
61336;SDS011;47212;41.326;2.104;2023-08-06T20:26:27;13.45;;;4.60;;
61336;SDS011;47212;41.326;2.104;2023-08-06T20:31:31;11.70;;;3.67;;
61336;SDS011;47212;41.326;2.104;2023-08-06T20:36:33;11.70;;;3.53;;
61336;SDS011;47212;41.326;2.104;2023-08-06T20:41:35;12.30;;;4.50;;
61336;SDS011;47212;41.326;2.104;2023-08-06T20:46:40;13.07;;;3.65;;
61336;SDS011;47212;41.326;2.104;2023-08-06T20:51:50;13.73;;;3.58;;
61336;SDS011;47212;41.326;2.104;2023-08-06T20:56:53;11.73;;;3.08;;
61336;SDS011;47212;41.326;2.104;2023-08-06T21:01:57;11.05;;;3.10;;
61336;SDS011;47212;41.326;2.104;2023-08-06T21:06:59;11.77;;;3.35;;
61336;SDS011;47212;41.326;2.104;2023-08-06T21:12:01;10.18;;;3.13;;
61336;SDS011;47212;41.326;2.104;2023-08-06T21:17:04;7.25;;;2.47;;
61336;SDS011;47212;41.326;2.104;2023-08-06T21:22:06;5.45;;;2.22;;
61336;SDS011;47212;41.326;2.104;2023-08-06T21:27:10;10.43;;;2.65;;
61336;SDS011;47212;41.326;2.104;2023-08-06T21:32:12;8.68;;;2.50;;
61336;SDS011;47212;41.326;2.104;2023-08-06T21:37:14;7.05;;;2.63;;
61336;SDS011;47212;41.326;2.104;2023-08-06T21:42:16;6.63;;;2.55;;
61336;SDS011;47212;41.326;2.104;2023-08-06T21:47:22;8.40;;;2.92;;
61336;SDS011;47212;41.326;2.104;2023-08-06T21:52:24;8.55;;;2.42;;
61336;SDS011;47212;41.326;2.104;2023-08-06T21:57:27;28.13;;;19.10;;
61336;SDS011;47212;41.326;2.104;2023-08-06T22:02:29;16.08;;;6.03;;
61336;SDS011;47212;41.326;2.104;2023-08-06T22:07:31;8.73;;;3.20;;
61336;SDS011;47212;41.326;2.104;2023-08-06T22:12:34;9.43;;;3.25;;
61336;SDS011;47212;41.326;2.104;2023-08-06T22:17:36;7.05;;;2.42;;
61336;SDS011;47212;41.326;2.104;2023-08-06T22:22:38;7.03;;;2.47;;
61336;SDS011;47212;41.326;2.104;2023-08-06T22:27:41;6.88;;;2.20;;
61336;SDS011;47212;41.326;2.104;2023-08-06T22:32:43;6.18;;;2.20;;
61336;SDS011;47212;41.326;2.104;2023-08-06T22:37:56;5.95;;;2.10;;
61336;SDS011;47212;41.326;2.104;2023-08-06T22:43:02;12.55;;;3.15;;
61336;SDS011;47212;41.326;2.104;2023-08-06T22:48:17;8.32;;;3.40;;
61336;SDS011;47212;41.326;2.104;2023-08-06T22:53:23;8.70;;;2.65;;
61336;SDS011;47212;41.326;2.104;2023-08-06T22:58:31;7.80;;;2.50;;
61336;SDS011;47212;41.326;2.104;2023-08-06T23:03:38;8.25;;;2.70;;
61336;SDS011;47212;41.326;2.104;2023-08-06T23:08:49;9.10;;;3.07;;
61336;SDS011;47212;41.326;2.104;2023-08-06T23:14:01;11.82;;;2.67;;
61336;SDS011;47212;41.326;2.104;2023-08-06T23:19:08;7.13;;;2.50;;
61336;SDS011;47212;41.326;2.104;2023-08-06T23:24:15;9.07;;;2.78;;
61336;SDS011;47212;41.326;2.104;2023-08-06T23:29:18;7.88;;;2.42;;
61336;SDS011;47212;41.326;2.104;2023-08-06T23:34:21;6.38;;;2.25;;
61336;SDS011;47212;41.326;2.104;2023-08-06T23:39:23;9.00;;;2.60;;
61336;SDS011;47212;41.326;2.104;2023-08-06T23:44:25;4.72;;;2.08;;
61336;SDS011;47212;41.326;2.104;2023-08-06T23:49:27;7.65;;;2.20;;
61336;SDS011;47212;41.326;2.104;2023-08-06T23:54:30;6.60;;;2.30;;
61336;SDS011;47212;41.326;2.104;2023-08-06T23:59:38;6.50;;;2.63;;
